< < Back
Terminal Aerodrome Forecast


Current Version              Previous Versions:   1  2  3  4  5  6  7  8  9  

Terminal Aerodrome Forecast

768
FTUS42 KTAE 022324
TAFTLH
TAF
KTLH 022324Z 0300/0324 18005KT P6SM VCSH SCT050
     FM030200 00000KT P6SM SCT250
     FM031300 31005KT P6SM SCT250
     FM031800 28008KT P6SM SCT060=

Latest METAR

740
SAUS80 KWBC 031500 RRB
MTRTLH
METAR KTLH 031453Z 00000KT 10SM FEW090 SCT130 BKN250 30/23 A3000 RMK AO2
SLP157 T03000228 53005 $


USA.gov is the U.S. government's official web portal to all federal, state and local government web resources and services.